createdAt,value
2023-05-12T00:01:46.322Z,3.13
2023-05-12T00:04:12.919Z,3.55
2023-05-12T00:06:39.447Z,3.20
2023-05-12T00:09:06.253Z,3.47
2023-05-12T00:11:32.803Z,3.25
2023-05-12T00:13:59.364Z,2.80
2023-05-12T00:16:25.925Z,2.63
2023-05-12T00:18:52.529Z,3.05
2023-05-12T00:21:19.141Z,2.80
2023-05-12T00:23:45.624Z,3.42
2023-05-12T00:26:12.115Z,3.17
2023-05-12T00:28:38.582Z,3.22
2023-05-12T00:31:05.230Z,2.65
2023-05-12T00:33:31.909Z,2.50
2023-05-12T00:36:00.491Z,3.08
2023-05-12T00:38:26.970Z,2.78
2023-05-12T00:40:53.414Z,2.80
2023-05-12T00:43:19.868Z,2.70
2023-05-12T00:45:46.696Z,2.80
2023-05-12T00:48:13.803Z,2.95
2023-05-12T00:50:40.619Z,2.90
2023-05-12T00:53:07.738Z,2.33
2023-05-12T00:55:34.201Z,2.58
2023-05-12T00:58:00.701Z,2.70
2023-05-12T01:00:27.190Z,2.70
2023-05-12T01:02:54.197Z,3.33
2023-05-12T01:05:20.856Z,3.08
2023-05-12T01:07:48.353Z,2.90
2023-05-12T01:10:21.908Z,2.30
2023-05-12T01:12:48.806Z,2.47
2023-05-12T01:15:16.858Z,2.55
2023-05-12T01:17:50.340Z,2.83
2023-05-12T01:20:21.077Z,2.65
2023-05-12T01:22:49.246Z,2.80
2023-05-12T01:25:17.252Z,2.63
2023-05-12T01:27:45.751Z,2.90
2023-05-12T01:30:16.814Z,2.83
2023-05-12T01:32:43.767Z,2.80
2023-05-12T01:35:10.490Z,3.10
2023-05-12T01:37:37.082Z,2.47
2023-05-12T01:40:04.030Z,2.95
2023-05-12T01:42:30.577Z,3.08
2023-05-12T01:44:57.058Z,2.50
2023-05-12T01:47:23.723Z,2.80
2023-05-12T01:49:51.119Z,2.60
2023-05-12T01:52:17.573Z,2.58
2023-05-12T01:54:44.034Z,2.50
2023-05-12T01:57:10.469Z,2.38
2023-05-12T01:59:37.035Z,2.43
2023-05-12T02:02:03.851Z,2.10
2023-05-12T02:04:30.387Z,2.10
2023-05-12T02:06:56.801Z,1.50
2023-05-12T02:09:23.252Z,1.85
2023-05-12T02:11:49.880Z,1.73
2023-05-12T02:14:16.376Z,2.00
2023-05-12T02:16:42.978Z,2.08
2023-05-12T02:19:09.575Z,2.00
2023-05-12T02:21:36.135Z,1.80
2023-05-12T02:24:02.587Z,1.63
2023-05-12T02:26:29.020Z,1.35
2023-05-12T02:28:55.666Z,1.65
2023-05-12T02:31:22.232Z,2.10
2023-05-12T02:33:50.732Z,1.65
2023-05-12T02:36:17.201Z,1.60
2023-05-12T02:38:43.676Z,2.00
2023-05-12T02:41:10.131Z,2.40
2023-05-12T02:43:36.647Z,2.20
2023-05-12T02:46:03.590Z,1.98
2023-05-12T02:48:30.164Z,2.03
2023-05-12T02:50:57.228Z,2.30
2023-05-12T02:53:23.787Z,2.08
2023-05-12T02:55:51.070Z,2.05
2023-05-12T02:58:17.602Z,2.42
2023-05-12T03:00:44.178Z,2.60
2023-05-12T03:03:10.916Z,2.38
2023-05-12T03:05:37.434Z,2.70
2023-05-12T03:08:04.024Z,2.97
2023-05-12T03:10:30.825Z,3.20
2023-05-12T03:12:57.276Z,2.80
2023-05-12T03:15:23.724Z,2.88
2023-05-12T03:17:50.166Z,3.28
2023-05-12T03:20:16.817Z,3.03
2023-05-12T03:22:43.360Z,3.67
2023-05-12T03:25:10.381Z,3.97
2023-05-12T03:27:36.990Z,4.20
2023-05-12T03:30:05.137Z,3.97
2023-05-12T03:32:31.798Z,4.47
2023-05-12T03:34:58.407Z,4.82
2023-05-12T03:37:24.878Z,4.60
2023-05-12T03:39:51.383Z,5.32
2023-05-12T03:42:17.835Z,5.13
2023-05-12T03:44:44.371Z,5.30
2023-05-12T03:47:10.932Z,5.40
2023-05-12T03:49:37.420Z,5.73
2023-05-12T03:52:04.066Z,6.13
2023-05-12T03:54:30.821Z,5.82
2023-05-12T03:56:57.264Z,6.47
2023-05-12T03:59:23.802Z,6.63
2023-05-12T04:01:50.550Z,5.77
2023-05-12T04:04:17.156Z,5.68
2023-05-12T04:06:43.704Z,6.93
2023-05-12T04:09:10.521Z,6.80
2023-05-12T04:11:37.057Z,7.97
2023-05-12T04:14:03.568Z,7.03
2023-05-12T04:16:30.085Z,7.10
2023-05-12T04:18:57.493Z,7.75
2023-05-12T04:21:24.076Z,7.07
2023-05-12T04:23:53.773Z,7.55
2023-05-12T04:26:20.821Z,8.00
2023-05-12T04:28:47.787Z,8.40
2023-05-12T04:31:14.274Z,7.93
2023-05-12T04:33:40.705Z,8.43
2023-05-12T04:36:07.621Z,8.57
2023-05-12T04:38:34.161Z,7.93
2023-05-12T04:41:01.210Z,9.15
2023-05-12T04:45:59.305Z,9.65
2023-05-12T04:48:26.773Z,9.45
2023-05-12T04:50:53.239Z,8.40
2023-05-12T04:53:19.696Z,9.30
2023-05-12T04:55:46.261Z,10.90
2023-05-12T04:58:16.201Z,10.23
2023-05-12T05:00:43.137Z,9.68
2023-05-12T05:03:09.924Z,10.80
2023-05-12T05:05:36.524Z,9.70
2023-05-12T05:08:03.064Z,10.10
2023-05-12T05:10:29.558Z,9.88
2023-05-12T05:12:56.435Z,12.60
2023-05-12T05:15:23.000Z,10.80
2023-05-12T05:17:49.851Z,11.30
2023-05-12T05:20:16.940Z,10.93
2023-05-12T05:22:43.678Z,11.75
2023-05-12T05:25:10.925Z,11.60
2023-05-12T05:27:38.832Z,12.03
2023-05-12T05:30:08.065Z,11.98
2023-05-12T05:32:40.276Z,11.38
2023-05-12T05:35:08.343Z,11.80
2023-05-12T05:37:34.943Z,12.23
2023-05-12T05:40:01.426Z,11.73
2023-05-12T05:42:27.883Z,11.60
2023-05-12T05:44:54.405Z,13.63
2023-05-12T05:47:20.898Z,12.07
2023-05-12T05:49:47.421Z,12.02
2023-05-12T05:52:13.872Z,12.00
2023-05-12T05:54:40.308Z,12.23
2023-05-12T05:57:06.881Z,12.70
2023-05-12T05:59:33.410Z,12.13
2023-05-12T06:01:59.912Z,12.95
2023-05-12T06:04:26.519Z,12.53
2023-05-12T06:06:53.049Z,12.60
2023-05-12T06:09:19.477Z,13.60
2023-05-12T06:11:45.959Z,11.57
2023-05-12T06:14:12.505Z,12.90
2023-05-12T06:16:39.619Z,12.33
2023-05-12T06:19:06.709Z,13.43
2023-05-12T06:21:33.462Z,12.43
2023-05-12T06:23:59.907Z,11.48
2023-05-12T06:26:26.469Z,12.57
2023-05-12T06:28:52.945Z,12.70
2023-05-12T06:31:19.488Z,12.15
2023-05-12T06:33:46.120Z,12.55
2023-05-12T06:36:12.625Z,12.45
2023-05-12T06:38:39.185Z,14.02
2023-05-12T06:41:05.726Z,12.23
2023-05-12T06:43:32.315Z,13.40
2023-05-12T06:45:58.807Z,12.43
2023-05-12T06:48:25.309Z,12.88
2023-05-12T06:50:51.851Z,13.82
2023-05-12T06:53:18.343Z,13.17
2023-05-12T06:55:46.364Z,12.80
2023-05-12T06:58:12.891Z,13.70
2023-05-12T07:00:39.354Z,13.68
2023-05-12T07:03:05.959Z,12.18
2023-05-12T07:05:32.537Z,12.83
2023-05-12T07:07:59.219Z,13.48
2023-05-12T07:10:25.795Z,12.15
2023-05-12T07:12:52.411Z,13.02
2023-05-12T07:15:19.348Z,13.75
2023-05-12T07:17:46.273Z,13.30
2023-05-12T07:20:12.805Z,12.50
2023-05-12T07:22:39.327Z,13.82
2023-05-12T07:25:07.605Z,12.80
2023-05-12T07:27:34.326Z,13.07
2023-05-12T07:30:00.821Z,13.07
2023-05-12T07:32:27.447Z,13.25
2023-05-12T07:34:55.039Z,13.13
2023-05-12T07:37:21.526Z,12.77
2023-05-12T07:39:47.988Z,14.18
2023-05-12T07:42:14.485Z,12.77
2023-05-12T07:44:41.477Z,14.45
2023-05-12T07:47:08.005Z,12.98
2023-05-12T07:49:34.495Z,13.07
2023-05-12T07:52:01.334Z,11.55
2023-05-12T07:54:27.805Z,11.70
2023-05-12T07:56:54.292Z,11.55
2023-05-12T07:59:20.876Z,10.65
2023-05-12T08:01:47.377Z,11.30
2023-05-12T08:04:13.958Z,10.55
2023-05-12T08:06:40.667Z,10.63
2023-05-12T08:09:07.183Z,11.10
2023-05-12T08:11:33.741Z,11.07
2023-05-12T08:14:00.734Z,11.20
2023-05-12T08:16:27.384Z,10.70
2023-05-12T08:18:53.906Z,10.63
2023-05-12T08:21:20.391Z,10.93
2023-05-12T08:23:46.876Z,10.75
2023-05-12T08:26:13.353Z,10.30
2023-05-12T08:28:39.916Z,10.20
2023-05-12T08:31:06.861Z,10.13
2023-05-12T08:33:36.401Z,9.80
2023-05-12T08:36:03.096Z,9.48
2023-05-12T08:38:29.896Z,9.63
2023-05-12T08:41:11.455Z,9.70
2023-05-12T08:43:45.106Z,9.40
2023-05-12T08:46:12.882Z,8.95
2023-05-12T08:48:40.525Z,9.13
2023-05-12T08:51:13.052Z,8.75
2023-05-12T08:53:41.688Z,10.30
2023-05-12T08:58:42.706Z,8.93
2023-05-12T09:01:12.169Z,8.43
2023-05-12T09:03:38.980Z,8.18
2023-05-12T09:06:06.466Z,8.10
2023-05-12T09:08:34.963Z,7.60
2023-05-12T09:11:02.482Z,8.27
2023-05-12T09:14:04.720Z,8.65
2023-05-12T09:16:34.491Z,8.13
2023-05-12T09:19:03.557Z,7.53
2023-05-12T09:21:31.153Z,7.23
2023-05-12T09:23:59.889Z,6.60
2023-05-12T09:26:28.111Z,7.07
2023-05-12T09:29:06.579Z,6.78
2023-05-12T09:31:33.199Z,6.70
2023-05-12T09:34:02.199Z,6.13
2023-05-12T09:36:28.777Z,4.78
2023-05-12T09:38:59.768Z,4.78
2023-05-12T09:41:26.356Z,4.38
2023-05-12T09:43:53.373Z,4.40
2023-05-12T09:46:20.311Z,4.60
2023-05-12T09:48:48.354Z,5.43
2023-05-12T09:51:20.733Z,5.00
2023-05-12T09:53:47.212Z,5.78
2023-05-12T09:56:14.865Z,5.20
2023-05-12T09:58:49.291Z,5.17
2023-05-12T10:01:23.458Z,5.03
2023-05-12T10:03:58.165Z,5.00
2023-05-12T10:06:33.932Z,5.35
2023-05-12T10:09:15.498Z,4.53
2023-05-12T10:11:43.252Z,4.73
2023-05-12T10:14:11.244Z,4.20
2023-05-12T10:16:39.199Z,4.60
2023-05-12T10:19:06.793Z,4.05
2023-05-12T10:21:33.371Z,4.68
2023-05-12T10:24:03.641Z,4.23
2023-05-12T10:26:32.534Z,4.60
2023-05-12T10:28:59.579Z,4.82
2023-05-12T10:31:27.988Z,4.20
2023-05-12T10:34:02.178Z,4.50
2023-05-12T10:36:29.104Z,4.30
2023-05-12T10:38:56.402Z,4.38
2023-05-12T10:41:32.719Z,3.92
2023-05-12T10:43:59.468Z,4.40
2023-05-12T10:46:30.168Z,4.13
2023-05-12T10:49:03.282Z,3.33
2023-05-12T10:51:35.064Z,3.15
2023-05-12T10:54:10.191Z,3.33
2023-05-12T10:56:39.711Z,3.65
2023-05-12T10:59:20.632Z,3.70
2023-05-12T11:02:08.119Z,3.13
2023-05-12T11:04:58.016Z,2.95
2023-05-12T11:07:31.013Z,2.70
2023-05-12T11:10:01.840Z,2.95
2023-05-12T11:12:35.338Z,2.60
2023-05-12T11:15:03.836Z,2.50
2023-05-12T11:17:30.802Z,2.45
2023-05-12T11:19:57.336Z,2.63
2023-05-12T11:22:24.301Z,2.72
2023-05-12T11:24:52.977Z,2.40
2023-05-12T11:27:22.537Z,2.20
2023-05-12T11:30:01.259Z,2.42
2023-05-12T11:32:29.412Z,2.58
2023-05-12T11:34:56.265Z,2.40
2023-05-12T11:37:23.039Z,2.50
2023-05-12T11:39:49.603Z,2.40
2023-05-12T11:42:19.850Z,2.28
2023-05-12T11:44:49.173Z,2.20
2023-05-12T11:47:17.235Z,2.72
2023-05-12T11:49:49.801Z,2.17
2023-05-12T11:52:17.122Z,2.07
2023-05-12T11:54:52.110Z,2.80
2023-05-12T11:57:32.651Z,2.58
2023-05-12T12:00:04.619Z,2.78
2023-05-12T12:02:31.606Z,3.00
2023-05-12T12:04:58.205Z,2.60
2023-05-12T12:07:35.861Z,2.45
2023-05-12T12:10:16.731Z,2.70
2023-05-12T12:12:43.909Z,2.35
2023-05-12T12:15:11.212Z,2.33
2023-05-12T12:17:38.575Z,2.23
2023-05-12T12:20:06.324Z,2.40
2023-05-12T12:22:34.361Z,2.40
2023-05-12T12:25:01.817Z,2.60
2023-05-12T12:27:28.272Z,2.70
2023-05-12T12:29:54.801Z,2.30
2023-05-12T12:32:21.302Z,2.30
2023-05-12T12:34:49.070Z,2.65
2023-05-12T12:37:16.164Z,2.40
2023-05-12T12:39:42.819Z,2.65
2023-05-12T12:42:09.495Z,2.50
2023-05-12T12:44:36.030Z,2.40
2023-05-12T12:47:02.605Z,2.33
2023-05-12T12:49:29.121Z,2.80
2023-05-12T12:51:56.024Z,2.30
2023-05-12T12:54:22.661Z,2.53
2023-05-12T12:56:49.172Z,2.55
2023-05-12T12:59:15.692Z,2.75
2023-05-12T13:01:42.900Z,2.78
2023-05-12T13:04:09.493Z,3.08
2023-05-12T13:06:36.096Z,2.93
2023-05-12T13:09:04.005Z,3.28
2023-05-12T13:11:30.586Z,2.92
2023-05-12T13:13:57.090Z,3.00
2023-05-12T13:16:23.622Z,3.00
2023-05-12T13:18:50.106Z,3.07
2023-05-12T13:21:18.717Z,3.00
2023-05-12T13:23:45.369Z,3.33
2023-05-12T13:26:11.839Z,3.13
2023-05-12T13:28:38.302Z,3.72
2023-05-12T13:31:06.117Z,3.57
2023-05-12T13:33:32.801Z,3.50
2023-05-12T13:35:59.418Z,3.63
2023-05-12T13:38:26.424Z,3.17
2023-05-12T13:40:53.023Z,3.65
2023-05-12T13:43:19.487Z,3.90
2023-05-12T13:45:46.003Z,3.33
2023-05-12T13:48:12.633Z,3.25
2023-05-12T13:50:39.262Z,3.35
2023-05-12T13:53:06.529Z,3.28
2023-05-12T13:55:34.259Z,3.37
2023-05-12T13:58:00.906Z,3.65
2023-05-12T14:00:29.706Z,3.03
2023-05-12T14:02:57.755Z,3.10
2023-05-12T14:05:24.903Z,2.75
2023-05-12T14:07:51.430Z,3.00
2023-05-12T14:10:18.615Z,3.28
2023-05-12T14:12:45.889Z,2.85
2023-05-12T14:17:46.282Z,2.78
2023-05-12T14:20:12.947Z,3.10
2023-05-12T14:22:39.637Z,2.70
2023-05-12T14:25:06.485Z,3.13
2023-05-12T14:27:32.972Z,3.30
2023-05-12T14:30:00.453Z,3.13
2023-05-12T14:32:29.280Z,3.10
2023-05-12T14:34:56.603Z,3.63
2023-05-12T14:37:23.115Z,3.03
2023-05-12T14:39:49.584Z,3.30
2023-05-12T14:42:16.303Z,3.47
2023-05-12T14:44:42.836Z,3.30
2023-05-12T14:47:09.380Z,3.20
2023-05-12T14:49:36.015Z,3.30
2023-05-12T14:52:02.969Z,3.30
2023-05-12T14:54:29.558Z,3.53
2023-05-12T14:56:56.615Z,3.27
2023-05-12T14:59:23.231Z,2.90
2023-05-12T15:01:49.997Z,3.15
2023-05-12T15:04:16.681Z,3.33
2023-05-12T15:06:43.165Z,3.15
2023-05-12T15:09:09.724Z,2.83
2023-05-12T15:11:36.958Z,3.30
2023-05-12T15:14:04.768Z,2.88
2023-05-12T15:16:33.032Z,3.10
2023-05-12T15:18:59.756Z,3.53
2023-05-12T15:21:26.423Z,3.20
2023-05-12T15:23:52.900Z,3.00
2023-05-12T15:26:32.032Z,3.10
2023-05-12T15:29:00.700Z,3.03
2023-05-12T15:31:30.376Z,3.28
2023-05-12T15:33:57.800Z,2.90
2023-05-12T15:36:24.273Z,2.80
2023-05-12T15:38:50.777Z,3.35
2023-05-12T15:41:17.424Z,3.20
2023-05-12T15:43:43.991Z,3.00
2023-05-12T15:46:11.665Z,2.80
2023-05-12T15:48:39.390Z,3.67
2023-05-12T15:51:06.546Z,3.97
2023-05-12T15:53:33.116Z,3.60
2023-05-12T15:56:04.194Z,4.28
2023-05-12T15:58:31.413Z,4.23
2023-05-12T16:00:58.238Z,5.13
2023-05-12T16:03:25.262Z,4.82
2023-05-12T16:05:52.195Z,4.38
2023-05-12T16:08:18.844Z,4.90
2023-05-12T16:10:45.424Z,4.83
2023-05-12T16:13:11.939Z,4.90
2023-05-12T16:15:38.457Z,4.80
2023-05-12T16:18:07.034Z,4.70
2023-05-12T16:20:35.762Z,4.80
2023-05-12T16:23:02.565Z,4.13
2023-05-12T16:25:29.210Z,4.38
2023-05-12T16:27:55.959Z,4.30
2023-05-12T16:30:22.463Z,4.25
2023-05-12T16:32:49.262Z,4.07
2023-05-12T16:35:15.949Z,3.90
2023-05-12T16:37:42.681Z,4.25
2023-05-12T16:40:09.711Z,4.18
2023-05-12T16:42:36.645Z,4.05
2023-05-12T16:45:03.258Z,3.83
2023-05-12T16:47:29.941Z,3.67
2023-05-12T16:49:58.070Z,4.25
2023-05-12T16:52:25.436Z,3.83
2023-05-12T16:54:52.168Z,4.28
2023-05-12T16:57:18.825Z,4.72
2023-05-12T16:59:45.478Z,4.73
2023-05-12T17:02:11.973Z,5.47
2023-05-12T17:04:38.576Z,4.70
2023-05-12T17:07:05.335Z,4.72
2023-05-12T17:09:31.818Z,4.15
2023-05-12T17:11:58.258Z,5.17
2023-05-12T17:14:24.843Z,5.45
2023-05-12T17:16:51.633Z,5.20
2023-05-12T17:19:18.250Z,5.20
2023-05-12T17:21:44.717Z,5.57
2023-05-12T17:24:11.219Z,5.30
2023-05-12T17:26:37.718Z,5.60
2023-05-12T17:29:04.396Z,5.45
2023-05-12T17:31:30.966Z,5.65
2023-05-12T17:33:57.659Z,6.00
2023-05-12T17:36:24.252Z,5.17
2023-05-12T17:38:51.746Z,5.95
2023-05-12T17:41:19.366Z,6.00
2023-05-12T17:43:45.916Z,5.97
2023-05-12T17:46:12.605Z,6.00
2023-05-12T17:48:39.066Z,6.20
2023-05-12T17:51:06.345Z,5.68
2023-05-12T17:53:33.841Z,5.82
2023-05-12T17:56:00.542Z,5.65
2023-05-12T17:58:27.503Z,5.82
2023-05-12T18:00:54.025Z,4.87
2023-05-12T18:03:24.024Z,5.35
2023-05-12T18:05:52.388Z,4.78
2023-05-12T18:08:19.144Z,5.40
2023-05-12T18:10:46.620Z,5.50
2023-05-12T18:13:14.608Z,4.70
2023-05-12T18:15:41.878Z,4.47
2023-05-12T18:18:09.992Z,4.68
2023-05-12T18:20:36.661Z,4.35
2023-05-12T18:23:03.145Z,3.75
2023-05-12T18:25:29.632Z,3.97
2023-05-12T18:27:56.133Z,3.25
2023-05-12T18:30:22.554Z,3.40
2023-05-12T18:32:49.438Z,3.28
2023-05-12T18:35:15.949Z,2.88
2023-05-12T18:37:42.540Z,2.80
2023-05-12T18:40:09.229Z,2.97
2023-05-12T18:42:36.079Z,2.53
2023-05-12T18:45:02.718Z,2.88
2023-05-12T18:47:29.153Z,2.80
2023-05-12T18:49:55.650Z,2.73
2023-05-12T18:52:22.191Z,2.95
2023-05-12T18:54:49.798Z,3.28
2023-05-12T18:57:17.046Z,3.28
2023-05-12T18:59:43.602Z,4.25
2023-05-12T19:02:10.486Z,4.73
2023-05-12T19:04:37.423Z,4.60
2023-05-12T19:07:06.374Z,4.88
2023-05-12T19:09:32.907Z,4.85
2023-05-12T19:11:59.561Z,4.72
2023-05-12T19:14:26.134Z,4.83
2023-05-12T19:16:52.763Z,4.80
2023-05-12T19:19:19.255Z,4.93
2023-05-12T19:21:45.840Z,5.85
2023-05-12T19:24:12.540Z,5.45
2023-05-12T19:26:39.038Z,5.43
2023-05-12T19:29:05.811Z,5.72
2023-05-12T19:31:34.204Z,6.88
2023-05-12T19:34:00.819Z,6.90
2023-05-12T19:36:29.065Z,6.30
2023-05-12T19:38:59.365Z,6.10
2023-05-12T19:41:29.690Z,5.90
2023-05-12T19:43:56.399Z,4.93
2023-05-12T19:46:23.262Z,5.05
2023-05-12T19:48:51.010Z,4.75
2023-05-12T19:51:17.606Z,5.33
2023-05-12T19:53:44.240Z,4.80
2023-05-12T19:56:10.720Z,4.82
2023-05-12T19:58:37.200Z,4.13
2023-05-12T20:01:03.755Z,4.63
2023-05-12T20:03:30.322Z,4.83
2023-05-12T20:05:58.496Z,5.10
2023-05-12T20:08:24.953Z,4.47
2023-05-12T20:10:51.411Z,5.15
2023-05-12T20:13:17.959Z,4.97
2023-05-12T20:15:44.533Z,4.53
2023-05-12T20:18:12.662Z,4.68
2023-05-12T20:20:39.288Z,4.85
2023-05-12T20:23:05.780Z,4.70
2023-05-12T20:25:33.111Z,4.75
2023-05-12T20:27:59.840Z,4.30
2023-05-12T20:30:26.776Z,5.05
2023-05-12T20:32:53.439Z,5.20
2023-05-12T20:35:20.727Z,5.50
2023-05-12T20:37:47.447Z,4.65
2023-05-12T20:40:14.165Z,5.43
2023-05-12T20:42:40.688Z,5.55
2023-05-12T20:45:07.734Z,5.63
2023-05-12T20:47:35.051Z,5.72
2023-05-12T20:50:05.474Z,5.28
2023-05-12T20:52:42.084Z,5.73
2023-05-12T20:55:09.747Z,5.68
2023-05-12T20:57:37.560Z,6.07
2023-05-12T21:00:04.566Z,6.20
2023-05-12T21:02:31.150Z,6.00
2023-05-12T21:04:57.694Z,5.77
2023-05-12T21:07:24.185Z,6.18
2023-05-12T21:09:50.701Z,5.80
2023-05-12T21:12:17.348Z,6.05
2023-05-12T21:14:45.162Z,5.72
2023-05-12T21:17:12.084Z,5.53
2023-05-12T21:19:39.967Z,6.28
2023-05-12T21:22:07.569Z,6.28
2023-05-12T21:24:34.177Z,6.05
2023-05-12T21:27:04.578Z,6.93
2023-05-12T21:29:32.008Z,6.27
2023-05-12T21:31:58.598Z,6.22
2023-05-12T21:34:25.198Z,6.10
2023-05-12T21:36:52.139Z,5.82
2023-05-12T21:39:18.625Z,6.05
2023-05-12T21:41:45.169Z,5.93
2023-05-12T21:44:11.742Z,5.95
2023-05-12T21:46:38.416Z,6.05
2023-05-12T21:49:05.140Z,5.68
2023-05-12T21:51:34.988Z,6.60
2023-05-12T21:54:01.965Z,5.60
2023-05-12T21:56:28.479Z,5.72
2023-05-12T21:58:55.637Z,6.22
2023-05-12T22:01:22.112Z,5.95
2023-05-12T22:03:48.736Z,6.03
2023-05-12T22:06:15.333Z,5.60
2023-05-12T22:08:42.334Z,5.70
2023-05-12T22:11:08.988Z,6.45
2023-05-12T22:13:35.440Z,7.13
2023-05-12T22:16:03.913Z,6.22
2023-05-12T22:18:30.504Z,6.10
2023-05-12T22:20:57.054Z,5.78
2023-05-12T22:23:23.580Z,6.05
2023-05-12T22:25:50.249Z,5.78
2023-05-12T22:28:16.796Z,5.93
2023-05-12T22:30:43.282Z,5.37
2023-05-12T22:33:09.931Z,5.93
2023-05-12T22:35:36.506Z,5.38
2023-05-12T22:38:03.081Z,5.25
2023-05-12T22:40:30.728Z,5.35
2023-05-12T22:42:57.260Z,5.00
2023-05-12T22:45:25.170Z,4.97
2023-05-12T22:47:51.637Z,4.75
2023-05-12T22:50:18.734Z,4.78
2023-05-12T22:52:45.428Z,4.82
2023-05-12T22:55:11.940Z,4.80
2023-05-12T22:57:43.667Z,4.60
2023-05-12T23:00:10.571Z,4.63
2023-05-12T23:02:37.139Z,4.15
2023-05-12T23:05:04.233Z,4.88
2023-05-12T23:07:31.080Z,4.20
2023-05-12T23:09:57.717Z,4.15
2023-05-12T23:12:24.203Z,4.78
2023-05-12T23:14:50.722Z,4.65
2023-05-12T23:17:17.192Z,4.40
2023-05-12T23:19:43.677Z,4.70
2023-05-12T23:22:10.112Z,4.25
2023-05-12T23:24:36.598Z,4.60
2023-05-12T23:27:03.434Z,4.38
2023-05-12T23:29:30.155Z,4.32
2023-05-12T23:31:58.707Z,4.17
2023-05-12T23:34:25.590Z,4.22
2023-05-12T23:36:52.045Z,4.30
2023-05-12T23:39:18.587Z,4.35
2023-05-12T23:41:45.634Z,4.13
2023-05-12T23:44:12.745Z,4.40
2023-05-12T23:46:39.350Z,4.47
2023-05-12T23:49:06.245Z,3.85
2023-05-12T23:51:32.881Z,3.88
2023-05-12T23:53:59.331Z,3.75
2023-05-12T23:56:25.866Z,4.20
2023-05-12T23:58:52.305Z,4.22
